Time;durP1;ratioP1;P1;durP2;ratioP2;P2;SDS_P1;SDS_P2;PMS_P1;PMS_P2;Temp;Humidity;BMP_temperature;BMP_pressure;BME280_temperature;BME280_humidity;BME280_pressure;Samples;Min_cycle;Max_cycle;Signal;HPM_P1;HPM_P2
2022/09/03 00:01:00;;;;;;;4.78;3.15;;;;;;;17.98;51.42;101230.91;5040176;28;20051;-74
2022/09/03 00:03:44;;;;;;;5.80;3.22;;;;;;;18.05;50.42;101230.88;5043805;28;20032;-75
2022/09/03 00:06:39;;;;;;;9.75;4.05;;;;;;;17.90;50.79;101230.22;5061951;28;20079;-75
2022/09/03 00:09:11;;;;;;;5.25;4.00;;;;;;;18.04;50.83;101230.03;5056715;28;20105;-75
2022/09/03 00:11:55;;;;;;;;;;;;;;;18.20;50.52;101231.50;5052152;28;20259;-75
2022/09/03 00:14:44;;;;;;;4.70;3.05;;;;;;;18.16;50.20;101230.75;5054189;28;19920;-75
2022/09/03 00:17:15;;;;;;;8.52;3.58;;;;;;;18.14;50.30;101225.50;5063380;28;20033;-74
2022/09/03 00:20:03;;;;;;;4.40;3.65;;;;;;;17.87;50.48;101225.38;5043360;28;20024;-75
2022/09/03 00:22:35;;;;;;;6.88;3.78;;;;;;;17.95;50.79;101229.75;5062302;28;20032;-75
2022/09/03 00:25:03;;;;;;;3.67;3.38;;;;;;;18.01;50.66;101232.94;5043724;28;20047;-75
2022/09/03 00:27:32;;;;;;;6.30;3.40;;;;;;;17.99;50.58;101230.50;5063180;28;20115;-75
2022/09/03 00:30:07;;;;;;;2.92;2.65;;;;;;;18.02;50.56;101221.16;5052927;28;20056;-73
2022/09/03 00:32:35;;;;;;;3.80;2.92;;;;;;;18.13;50.04;101223.91;5055657;28;20126;-75
2022/09/03 00:35:04;;;;;;;4.20;3.50;;;;;;;17.93;49.92;101223.69;5054341;28;20037;-75
2022/09/03 00:37:30;;;;;;;3.97;2.80;;;;;;;17.81;50.97;101216.50;5051310;28;20068;-75
2022/09/03 00:39:56;;;;;;;7.63;2.97;;;;;;;17.95;50.32;101226.91;5033672;28;20037;-75
2022/09/03 00:42:54;;;;;;;3.38;2.80;;;;;;;17.93;50.63;101223.69;5051224;28;20101;-75
2022/09/03 00:45:47;;;;;;;4.78;3.20;;;;;;;17.66;50.46;101226.34;5038236;28;20451;-75
2022/09/03 00:48:21;;;;;;;4.43;3.28;;;;;;;17.70;50.21;101226.34;5052642;28;20037;-75
2022/09/03 00:51:02;;;;;;;3.40;3.03;;;;;;;17.73;50.49;101219.81;5055028;28;20116;-75
2022/09/03 00:53:41;;;;;;;5.00;2.88;;;;;;;17.70;50.45;101217.84;5053439;28;20348;-75
2022/09/03 00:56:24;;;;;;;4.65;2.83;;;;;;;17.59;50.75;101215.91;5050393;28;20044;-75
2022/09/03 00:59:06;;;;;;;4.13;3.10;;;;;;;17.76;50.36;101219.00;5055550;28;20025;-74
2022/09/03 01:01:56;;;;;;;5.47;2.83;;;;;;;17.76;50.71;101224.66;5057589;28;20036;-74
2022/09/03 01:04:38;;;;;;;4.07;3.03;;;;;;;17.77;50.26;101226.25;5058425;28;20527;-75
2022/09/03 01:07:11;;;;;;;2.97;2.70;;;;;;;17.80;50.41;101220.56;5060499;28;20182;-74
2022/09/03 01:09:47;;;;;;;4.90;3.00;;;;;;;17.61;50.68;101224.78;5040982;28;20086;-74
2022/09/03 01:12:28;;;;;;;4.30;2.55;;;;;;;17.53;51.04;101223.25;5053210;28;20036;-75
2022/09/03 01:15:03;;;;;;;5.07;2.95;;;;;;;17.46;50.63;101218.44;5055250;28;21004;-75
2022/09/03 01:17:50;;;;;;;4.63;3.00;;;;;;;17.72;50.27;101212.56;5057487;28;20099;-74
2022/09/03 01:20:46;;;;;;;5.78;3.65;;;;;;;17.64;50.78;101211.81;5055725;28;20029;-74
2022/09/03 01:23:34;;;;;;;6.85;3.22;;;;;;;17.76;50.26;101219.00;5057133;28;20071;-75
2022/09/03 01:26:37;;;;;;;3.85;2.75;;;;;;;17.61;50.26;101218.31;5052082;28;20063;-75
2022/09/03 01:29:52;;;;;;;7.68;2.80;;;;;;;17.18;51.15;101215.84;5056717;28;20104;-73
2022/09/03 01:32:35;;;;;;;4.22;2.70;;;;;;;17.41;50.42;101218.09;5053112;28;20472;-74
2022/09/03 01:35:26;;;;;;;3.75;2.80;;;;;;;17.58;50.70;101222.81;5054253;28;20033;-73
2022/09/03 01:38:15;;;;;;;3.72;3.42;;;;;;;17.27;51.54;101224.69;5049981;28;20877;-74
2022/09/03 01:40:57;;;;;;;2.58;2.33;;;;;;;17.23;51.21;101221.88;5046161;28;20127;-74
2022/09/03 01:43:46;;;;;;;3.00;2.50;;;;;;;17.42;50.75;101223.34;5057621;28;20043;-73
2022/09/03 01:46:38;;;;;;;4.22;2.88;;;;;;;17.51;50.81;101220.03;5056814;28;20039;-73
2022/09/03 01:49:19;;;;;;;3.95;2.90;;;;;;;17.26;51.16;101223.84;5056271;28;20542;-73
2022/09/03 01:51:45;;;;;;;5.88;2.83;;;;;;;17.34;51.18;101218.16;5054960;28;20029;-74
2022/09/03 01:54:42;;;;;;;5.30;2.90;;;;;;;17.36;50.58;101221.38;5056199;28;20126;-73
2022/09/03 01:57:35;;;;;;;4.40;3.20;;;;;;;17.31;50.89;101218.97;5059921;28;20479;-74
2022/09/03 02:00:12;;;;;;;6.57;2.65;;;;;;;17.43;50.71;101224.13;5052700;28;20040;-73
2022/09/03 02:02:39;;;;;;;2.53;2.22;;;;;;;17.36;50.63;101225.00;5061366;28;20036;-74
2022/09/03 02:05:13;;;;;;;6.53;3.03;;;;;;;16.98;51.73;101230.53;5041637;28;20033;-74
2022/09/03 02:07:43;;;;;;;6.10;3.55;;;;;;;17.22;51.48;101220.28;5058238;28;20492;-74
2022/09/03 02:10:21;;;;;;;4.90;2.67;;;;;;;17.31;51.06;101228.28;5051867;28;20117;-74
2022/09/03 02:12:57;;;;;;;3.55;2.20;;;;;;;17.27;50.39;101228.31;5054015;28;20040;-74
2022/09/03 02:15:24;;;;;;;3.40;2.42;;;;;;;17.15;51.33;101220.31;5056003;28;20373;-73
2022/09/03 02:17:55;;;;;;;5.50;2.80;;;;;;;17.21;51.17;101229.97;5057192;28;20103;-74
2022/09/03 02:20:25;;;;;;;3.70;2.97;;;;;;;17.21;51.21;101229.16;5054923;28;20032;-74
2022/09/03 02:22:53;;;;;;;2.83;2.35;;;;;;;17.25;51.45;101232.78;5040140;28;20486;-74
2022/09/03 02:25:19;;;;;;;8.27;3.38;;;;;;;17.02;51.17;101216.38;5055834;28;20155;-73
2022/09/03 02:27:48;;;;;;;6.82;2.63;;;;;;;17.18;51.25;101221.50;5039595;28;20040;-74
2022/09/03 02:30:13;;;;;;;4.07;2.40;;;;;;;17.22;51.12;101222.28;5057301;28;20048;-74
2022/09/03 02:32:39;;;;;;;3.20;2.28;;;;;;;17.14;51.03;101224.38;5061036;28;20044;-73
2022/09/03 02:35:04;;;;;;;4.50;2.70;;;;;;;17.09;51.29;101221.97;5058047;28;20033;-73
2022/09/03 02:37:30;;;;;;;5.00;2.63;;;;;;;17.04;51.23;101222.41;5054201;28;20555;-73
2022/09/03 02:39:55;;;;;;;5.13;2.90;;;;;;;16.96;51.38;101224.47;5038286;28;20556;-74
2022/09/03 02:42:21;;;;;;;4.03;2.70;;;;;;;17.05;51.25;101221.19;5038489;28;20033;-74
2022/09/03 02:44:54;;;;;;;7.93;2.80;;;;;;;16.89;51.66;101223.72;5040318;28;20033;-74
2022/09/03 02:47:19;;;;;;;7.53;3.20;;;;;;;17.07;51.20;101221.56;5041587;28;20041;-74
2022/09/03 02:49:47;;;;;;;3.78;2.70;;;;;;;16.94;51.47;101220.47;5037375;28;20150;-73
2022/09/03 02:52:13;;;;;;;5.07;2.42;;;;;;;16.90;51.64;101214.81;5033785;28;20343;-74
2022/09/03 02:54:39;;;;;;;4.10;2.42;;;;;;;17.03;51.50;101217.97;5041715;28;20384;-73
2022/09/03 02:57:10;;;;;;;5.70;2.42;;;;;;;16.94;51.63;101218.44;5040150;28;20037;-72
2022/09/03 02:59:36;;;;;;;5.55;2.88;;;;;;;17.08;51.42;101209.06;5035394;28;20048;-74
2022/09/03 03:02:02;;;;;;;2.30;2.10;;;;;;;17.01;51.10;101211.91;5039146;28;20099;-74
2022/09/03 03:04:32;;;;;;;3.72;3.13;;;;;;;16.95;51.26;101207.91;5038857;28;20025;-75
2022/09/03 03:06:57;;;;;;;8.60;2.58;;;;;;;16.87;51.46;101207.19;5036497;28;20114;-74
2022/09/03 03:09:23;;;;;;;2.90;2.42;;;;;;;16.96;51.36;101206.72;5039792;28;20469;-74
2022/09/03 03:11:50;;;;;;;2.33;2.10;;;;;;;17.01;51.25;101203.44;5034813;28;20047;-73
2022/09/03 03:14:16;;;;;;;3.88;2.60;;;;;;;16.89;51.59;101209.56;5035190;28;20025;-73
2022/09/03 03:16:42;;;;;;;4.13;2.55;;;;;;;16.85;51.50;101210.41;5037865;28;20047;-73
2022/09/03 03:19:07;;;;;;;3.92;2.28;;;;;;;16.81;51.64;101217.31;5040450;28;20404;-74
2022/09/03 03:21:32;;;;;;;3.90;2.28;;;;;;;16.73;51.89;101210.84;5039243;28;20502;-74
2022/09/03 03:24:00;;;;;;;3.83;2.47;;;;;;;16.76;51.68;101212.88;5038464;28;20544;-74
2022/09/03 03:26:26;;;;;;;2.75;2.35;;;;;;;16.79;51.61;101211.22;5034511;28;20049;-74
2022/09/03 03:28:56;;;;;;;2.70;2.50;;;;;;;16.83;51.79;101204.38;5033848;28;20522;-73
2022/09/03 03:31:22;;;;;;;2.75;2.28;;;;;;;16.85;51.70;101204.75;5039046;28;20056;-74
2022/09/03 03:33:56;;;;;;;4.55;2.40;;;;;;;16.72;51.92;101211.25;5021407;28;20028;-73
2022/09/03 03:36:23;;;;;;;5.47;2.33;;;;;;;16.78;51.67;101213.25;5034980;28;20045;-74
2022/09/03 03:38:48;;;;;;;4.47;2.38;;;;;;;16.81;51.84;101212.44;5045945;28;20051;-74
2022/09/03 03:41:17;;;;;;;3.00;2.63;;;;;;;16.77;51.74;101217.28;5032311;28;20025;-74
2022/09/03 03:43:43;;;;;;;4.07;2.65;;;;;;;16.78;51.71;101216.09;5056530;28;20415;-73
2022/09/03 03:46:09;;;;;;;2.35;2.00;;;;;;;16.74;51.94;101212.47;5040768;28;20051;-73
2022/09/03 03:48:35;;;;;;;4.05;3.58;;;;;;;16.79;51.74;101216.88;5055629;28;20028;-73
2022/09/03 03:51:05;;;;;;;2.35;2.15;;;;;;;16.76;51.77;101221.34;5055413;28;20040;-74
2022/09/03 03:53:31;;;;;;;3.55;2.53;;;;;;;16.73;51.89;101208.03;5053382;28;20403;-74
2022/09/03 03:55:58;;;;;;;5.72;2.65;;;;;;;16.58;52.13;101209.34;5056373;28;20032;-73
2022/09/03 03:58:23;;;;;;;3.75;2.25;;;;;;;16.49;52.32;101206.16;5060777;28;20041;-73
2022/09/03 04:00:51;;;;;;;4.88;2.30;;;;;;;16.45;52.53;101206.97;5036404;28;20054;-73
2022/09/03 04:03:16;;;;;;;5.05;2.80;;;;;;;16.40;52.73;101200.91;5058555;28;20040;-73
2022/09/03 04:05:42;;;;;;;5.03;2.53;;;;;;;16.50;52.31;101202.91;5054828;28;20036;-74
2022/09/03 04:08:07;;;;;;;4.35;2.70;;;;;;;16.57;52.15;101207.69;5055294;28;20419;-72
2022/09/03 04:10:33;;;;;;;4.38;2.20;;;;;;;16.38;52.63;101207.00;5056708;28;20040;-73
2022/09/03 04:12:59;;;;;;;5.40;2.85;;;;;;;16.26;53.03;101204.63;5054057;28;20473;-74
2022/09/03 04:15:25;;;;;;;4.78;2.80;;;;;;;16.31;52.96;101201.38;5052079;28;20044;-74
2022/09/03 04:17:54;;;;;;;3.45;2.40;;;;;;;16.25;52.85;101205.81;5057704;28;20032;-74
2022/09/03 04:20:19;;;;;;;3.78;2.47;;;;;;;16.17;53.40;101212.72;5057951;28;20025;-73
2022/09/03 04:22:44;;;;;;;3.45;2.53;;;;;;;16.17;53.26;101201.41;5057999;28;20036;-74
2022/09/03 04:25:10;;;;;;;4.47;2.50;;;;;;;16.10;53.46;101210.72;5054420;28;20039;-73
2022/09/03 04:27:35;;;;;;;5.30;2.42;;;;;;;16.14;53.32;101220.00;5058606;28;20412;-73
2022/09/03 04:30:00;;;;;;;4.75;2.45;;;;;;;16.27;52.72;101214.69;5036389;28;20048;-74
2022/09/03 04:35:10;;;;;;;3.60;2.53;;;;;;;16.08;53.56;101203.88;5051886;28;20046;-74
2022/09/03 04:37:36;;;;;;;3.85;2.75;;;;;;;16.05;53.25;101214.78;5054774;28;20044;-73
2022/09/03 04:40:02;;;;;;;5.60;2.70;;;;;;;16.15;53.42;101203.84;5053186;28;20124;-74
2022/09/03 04:42:27;;;;;;;3.65;2.67;;;;;;;16.10;53.15;101201.44;5055283;28;20507;-74
2022/09/03 04:44:53;;;;;;;4.13;3.00;;;;;;;16.13;53.15;101215.56;5057205;28;20047;-74
2022/09/03 04:47:18;;;;;;;6.03;2.70;;;;;;;16.07;53.34;101214.38;5038801;28;20035;-73
2022/09/03 04:49:43;;;;;;;4.63;2.72;;;;;;;16.08;53.39;101210.31;5039087;28;20051;-74
2022/09/03 04:52:09;;;;;;;5.00;2.50;;;;;;;15.95;53.48;101207.13;5055930;28;20042;-74
2022/09/03 04:54:34;;;;;;;2.88;2.55;;;;;;;16.04;53.44;101201.88;5057366;28;20171;-75
2022/09/03 04:56:59;;;;;;;3.10;2.58;;;;;;;16.00;53.63;101206.72;5034621;28;20484;-74
2022/09/03 04:59:25;;;;;;;4.13;3.00;;;;;;;15.97;53.69;101207.53;5056824;28;20043;-75
2022/09/03 05:01:51;;;;;;;5.95;2.90;;;;;;;15.70;54.48;101212.00;5056644;28;20706;-74
2022/09/03 05:04:17;;;;;;;5.13;2.80;;;;;;;15.92;53.82;101219.25;5037513;28;20025;-75
2022/09/03 05:06:44;;;;;;;3.35;2.40;;;;;;;16.00;53.61;101203.91;5056250;28;20040;-73
2022/09/03 05:09:09;;;;;;;3.88;2.47;;;;;;;15.74;54.46;101207.97;5035563;28;20391;-75
2022/09/03 05:11:35;;;;;;;3.58;2.65;;;;;;;15.74;54.23;101207.97;5030722;28;20041;-75
2022/09/03 05:14:01;;;;;;;2.92;2.53;;;;;;;15.87;54.04;101205.53;5054605;28;20328;-75
2022/09/03 05:16:28;;;;;;;5.72;3.20;;;;;;;15.92;53.93;101207.97;5034871;28;20063;-73
2022/09/03 05:18:56;;;;;;;3.60;2.70;;;;;;;15.89;53.92;101205.94;5058879;28;20115;-75
2022/09/03 05:21:22;;;;;;;4.50;2.60;;;;;;;15.85;54.07;101210.78;5059036;28;20086;-74
2022/09/03 05:23:49;;;;;;;4.57;3.20;;;;;;;15.75;54.54;101215.25;5061759;28;20040;-75
2022/09/03 05:26:17;;;;;;;3.88;2.80;;;;;;;15.83;54.29;101204.72;5053216;28;20119;-75
2022/09/03 05:28:43;;;;;;;4.95;2.92;;;;;;;15.85;54.78;101213.59;5040490;28;20033;-73
2022/09/03 05:31:11;;;;;;;4.22;3.45;;;;;;;15.64;54.88;101209.59;5058261;28;22237;-74
2022/09/03 05:33:39;;;;;;;4.75;3.03;;;;;;;15.56;55.44;101202.34;5057799;28;20025;-74
2022/09/03 05:36:06;;;;;;;6.45;3.50;;;;;;;15.65;55.11;101199.91;5061294;28;20102;-74
2022/09/03 05:38:32;;;;;;;4.75;3.38;;;;;;;15.82;54.46;101205.97;5060997;28;20049;-73
2022/09/03 05:41:01;;;;;;;4.60;3.17;;;;;;;15.75;54.99;101208.81;5050823;28;20409;-73
2022/09/03 05:43:27;;;;;;;2.58;2.38;;;;;;;15.69;55.28;101204.75;5058941;28;20117;-74
2022/09/03 05:46:03;;;;;;;7.28;3.60;;;;;;;15.51;55.34;101216.84;5040733;28;20527;-73
2022/09/03 05:48:29;;;;;;;3.63;2.78;;;;;;;15.74;55.06;101215.66;5054172;28;20040;-73
2022/09/03 05:51:06;;;;;;;5.07;3.22;;;;;;;15.84;54.93;101212.00;5057508;28;20025;-73
2022/09/03 05:53:34;;;;;;;7.57;3.38;;;;;;;15.55;55.87;101225.31;5058193;28;20559;-74
2022/09/03 05:56:04;;;;;;;9.80;3.47;;;;;;;15.71;55.64;101207.97;5056098;28;20036;-74
2022/09/03 05:58:31;;;;;;;3.50;2.97;;;;;;;15.51;56.31;101211.19;5058382;28;20032;-74
2022/09/03 06:00:57;;;;;;;4.85;2.97;;;;;;;15.78;55.07;101213.63;5055399;28;20114;-74
2022/09/03 06:03:22;;;;;;;7.25;3.17;;;;;;;15.50;55.83;101206.78;5055038;28;20024;-74
2022/09/03 06:05:53;;;;;;;3.67;2.78;;;;;;;15.33;56.80;101213.25;5056476;28;20035;-74
2022/09/03 06:08:19;;;;;;;5.00;2.70;;;;;;;15.58;56.22;101219.69;5035511;28;20380;-74
2022/09/03 06:10:44;;;;;;;7.50;3.60;;;;;;;15.17;57.97;101207.97;5051958;28;22014;-74
2022/09/03 06:13:10;;;;;;;4.55;3.28;;;;;;;15.28;57.77;101214.44;5056904;28;20051;-73
2022/09/03 06:15:35;;;;;;;7.88;2.80;;;;;;;15.29;56.96;101209.63;5048682;28;20456;-75
2022/09/03 06:18:00;;;;;;;5.53;3.35;;;;;;;15.28;57.25;101207.97;5050108;28;20053;-74
2022/09/03 06:20:27;;;;;;;10.07;3.95;;;;;;;15.47;56.96;101204.75;5053059;28;20021;-74
2022/09/03 06:22:53;;;;;;;4.40;3.13;;;;;;;15.33;57.04;101204.78;5051840;28;20024;-74
2022/09/03 06:25:18;;;;;;;5.95;3.35;;;;;;;15.05;58.84;101206.34;5049462;28;20369;-73
2022/09/03 06:27:44;;;;;;;4.93;2.95;;;;;;;15.09;58.46;101207.16;5050641;28;20469;-73
2022/09/03 06:30:10;;;;;;;4.93;3.45;;;;;;;14.96;58.64;101203.13;5052289;28;20024;-73
2022/09/03 06:32:46;;;;;;;3.25;2.95;;;;;;;15.17;57.77;101203.13;5055120;28;20493;-74
2022/09/03 06:35:11;;;;;;;5.00;3.17;;;;;;;14.86;59.12;101210.34;5058064;28;20158;-74
2022/09/03 06:37:40;;;;;;;8.05;3.42;;;;;;;15.07;59.38;101203.13;5058107;28;20043;-74
2022/09/03 06:40:08;;;;;;;4.35;2.97;;;;;;;15.08;58.99;101208.38;5057274;28;20535;-73
2022/09/03 06:42:33;;;;;;;2.72;2.33;;;;;;;15.42;57.43;101205.16;5055788;28;20082;-73
2022/09/03 06:44:59;;;;;;;6.30;3.35;;;;;;;15.47;57.03;101204.75;5057712;28;20082;-74
2022/09/03 06:47:24;;;;;;;4.10;2.97;;;;;;;15.29;59.50;101206.78;5058141;28;20031;-73
2022/09/03 06:49:49;;;;;;;3.70;2.65;;;;;;;15.46;58.20;101208.78;5057862;28;20024;-74
2022/09/03 06:52:15;;;;;;;4.70;2.60;;;;;;;15.38;58.70;101196.69;5060382;28;20047;-73
2022/09/03 06:54:40;;;;;;;4.22;2.70;;;;;;;15.48;58.41;101212.03;5041523;28;20119;-73
2022/09/03 06:57:05;;;;;;;4.53;3.00;;;;;;;15.53;57.68;101208.78;5060134;28;20033;-74
2022/09/03 06:59:30;;;;;;;6.60;3.10;;;;;;;15.50;58.95;101209.59;5044963;28;20062;-74
2022/09/03 07:01:57;;;;;;;8.15;3.45;;;;;;;15.41;59.63;101214.81;5046972;28;20024;-73
2022/09/03 07:04:24;;;;;;;2.88;2.67;;;;;;;15.64;57.61;101205.94;5043254;28;20105;-73
2022/09/03 07:06:49;;;;;;;6.20;2.85;;;;;;;15.70;58.17;101206.34;5054990;28;20029;-74
2022/09/03 07:09:17;;;;;;;6.68;2.58;;;;;;;15.72;58.33;101206.78;5054697;28;20106;-74
2022/09/03 07:11:45;;;;;;;5.80;2.85;;;;;;;15.74;59.07;101204.38;5052140;28;20033;-74
2022/09/03 07:14:12;;;;;;;4.97;3.05;;;;;;;15.85;57.68;101207.97;5054278;28;20028;-75
2022/09/03 07:16:38;;;;;;;3.80;3.22;;;;;;;15.94;58.33;101208.34;5053748;28;20456;-73
2022/09/03 07:19:04;;;;;;;5.53;2.60;;;;;;;15.90;59.38;101210.38;5056738;28;20124;-74
2022/09/03 07:21:40;;;;;;;8.20;2.70;;;;;;;16.04;58.72;101221.66;5056098;28;20023;-73
2022/09/03 07:24:05;;;;;;;4.43;2.65;;;;;;;16.14;57.62;101214.34;5066169;28;20532;-73
2022/09/03 07:26:45;;;;;;;3.92;2.72;;;;;;;16.27;56.79;101211.88;5057864;28;20035;-74
2022/09/03 07:29:11;;;;;;;4.55;2.30;;;;;;;16.38;56.47;101209.00;5042825;28;20059;-74
2022/09/03 07:31:39;;;;;;;4.20;2.53;;;;;;;16.50;56.32;101214.19;5040834;28;20116;-74
2022/09/03 07:34:07;;;;;;;7.13;2.40;;;;;;;16.61;55.96;101205.66;5051371;28;20040;-74
2022/09/03 07:36:45;;;;;;;3.70;2.00;;;;;;;16.72;56.35;101209.25;5046777;28;20673;-74
2022/09/03 07:39:12;;;;;;;3.20;2.53;;;;;;;16.84;54.15;101202.34;5051393;28;20048;-74
2022/09/03 07:41:44;;;;;;;4.53;2.38;;;;;;;16.86;54.93;101206.38;5048981;28;22302;-74
2022/09/03 07:44:14;;;;;;;4.78;2.30;;;;;;;16.97;55.14;101208.31;5052303;28;20105;-73
2022/09/03 07:46:40;;;;;;;9.50;2.55;;;;;;;17.14;55.10;101201.75;5055558;28;20029;-75
2022/09/03 07:49:09;;;;;;;4.28;2.60;;;;;;;17.26;54.54;101203.25;5055281;28;20122;-73
2022/09/03 07:51:36;;;;;;;4.10;2.38;;;;;;;17.35;53.76;101212.09;5054433;28;20040;-74
2022/09/03 07:54:05;;;;;;;3.28;2.47;;;;;;;17.46;53.35;101212.00;5056522;28;20055;-75
2022/09/03 07:56:31;;;;;;;4.95;2.25;;;;;;;17.40;53.27;101205.16;5047223;28;20388;-73
2022/09/03 07:58:58;;;;;;;3.90;2.42;;;;;;;17.44;53.16;101217.25;5055644;28;20032;-74
2022/09/03 08:01:26;;;;;;;6.00;2.33;;;;;;;17.52;53.18;101209.50;5055830;28;20370;-73
2022/09/03 08:03:52;;;;;;;14.77;2.63;;;;;;;17.57;53.84;101206.22;5042389;28;20036;-74
2022/09/03 08:06:19;;;;;;;4.38;2.33;;;;;;;17.63;53.46;101213.06;5059002;28;20040;-73
2022/09/03 08:08:45;;;;;;;3.80;2.30;;;;;;;17.81;53.30;101204.38;5056872;28;20031;-73
2022/09/03 08:11:20;;;;;;;3.45;2.65;;;;;;;17.88;53.69;101207.19;5053611;28;20032;-74
2022/09/03 08:14:07;;;;;;;6.60;2.50;;;;;;;17.99;53.33;101212.72;5051426;28;20029;-73
2022/09/03 08:16:38;;;;;;;6.55;3.10;;;;;;;18.68;53.71;101216.34;5050119;28;20036;-76
2022/09/03 08:19:04;;;;;;;4.93;2.30;;;;;;;19.16;54.52;101218.06;5053079;28;20044;-78
2022/09/03 08:21:30;;;;;;;5.15;2.78;;;;;;;18.81;50.77;101214.53;5040697;28;20044;-78
2022/09/03 08:24:02;;;;;;;3.03;2.65;;;;;;;19.25;53.82;101214.72;5055224;28;20412;-77
2022/09/03 08:26:30;;;;;;;4.95;2.42;;;;;;;19.55;49.69;101210.16;5037263;28;20040;-77
2022/09/03 08:28:56;;;;;;;5.45;2.60;;;;;;;19.62;51.48;101212.84;5043812;28;20036;-76
2022/09/03 08:31:23;;;;;;;3.88;2.53;;;;;;;19.63;50.80;101205.97;5054295;28;20260;-75
2022/09/03 08:33:51;;;;;;;7.38;2.42;;;;;;;19.90;49.79;101203.03;5057825;28;20708;-75
2022/09/03 08:36:28;;;;;;;3.05;2.65;;;;;;;19.69;50.24;101212.72;5066808;28;20048;-77
2022/09/03 08:38:56;;;;;;;5.43;2.42;;;;;;;19.58;49.04;101212.91;5066963;28;20492;-77
2022/09/03 08:41:54;;;;;;;5.28;2.55;;;;;;;19.59;48.62;101206.00;5065136;28;20043;-77
2022/09/03 08:44:48;;;;;;;6.07;2.40;;;;;;;19.81;48.73;101205.66;5057272;28;20012;-78
2022/09/03 08:47:27;;;;;;;4.95;2.40;;;;;;;19.84;49.70;101204.78;5063835;28;20487;-74
2022/09/03 08:49:54;;;;;;;6.28;2.72;;;;;;;20.03;48.22;101201.16;5067112;28;20508;-75
2022/09/03 08:52:45;;;;;;;5.95;2.58;;;;;;;20.10;48.10;101197.38;5062737;28;20510;-75
2022/09/03 08:55:44;;;;;;;4.20;2.47;;;;;;;20.32;47.24;101203.41;5057226;28;20039;-77
2022/09/03 08:58:13;;;;;;;5.00;2.20;;;;;;;20.13;48.71;101201.38;5044857;28;20485;-75
2022/09/03 09:00:53;;;;;;;6.03;2.53;;;;;;;20.39;47.00;101199.66;5044239;28;20044;-75
2022/09/03 09:04:01;;;;;;;6.63;2.50;;;;;;;20.58;46.79;101201.69;5061384;28;20029;-74
2022/09/03 09:06:35;;;;;;;5.07;2.92;;;;;;;20.39;46.86;101205.34;5055026;28;20350;-77
2022/09/03 09:09:17;;;;;;;7.07;2.47;;;;;;;20.58;46.32;101206.59;5045464;28;20464;-75
2022/09/03 09:12:12;;;;;;;4.78;2.60;;;;;;;20.89;45.16;101205.06;5063658;28;20507;-77
2022/09/03 09:15:17;;;;;;;3.58;2.30;;;;;;;20.77;45.17;101200.06;5038081;28;20392;-76
2022/09/03 09:18:01;;;;;;;5.90;2.65;;;;;;;20.83;45.43;101208.84;5061667;28;20578;-76
2022/09/03 09:20:31;;;;;;;3.70;2.88;;;;;;;20.91;45.55;101201.75;5045926;28;20028;-75
2022/09/03 09:23:02;;;;;;;6.70;2.33;;;;;;;21.21;45.28;101214.06;5057733;28;20032;-75
2022/09/03 09:25:30;;;;;;;4.70;2.83;;;;;;;20.92;45.80;101204.16;5049557;28;20496;-75
2022/09/03 09:28:27;;;;;;;3.03;2.40;;;;;;;21.31;45.26;101208.13;5045207;28;20090;-78
2022/09/03 09:30:55;;;;;;;7.05;2.60;;;;;;;21.30;44.69;101211.41;5056121;28;20037;-75
2022/09/03 09:33:21;;;;;;;6.30;2.60;;;;;;;21.44;44.64;101215.94;5044776;28;20060;-75
2022/09/03 09:35:47;;;;;;;7.45;2.60;;;;;;;21.56;44.22;101201.00;5064354;28;20115;-75
2022/09/03 09:38:13;;;;;;;4.60;2.25;;;;;;;21.59;44.86;101200.13;5043018;28;20479;-77
2022/09/03 09:40:41;;;;;;;8.40;2.22;;;;;;;21.86;44.10;101202.66;5060136;28;20028;-77
2022/09/03 09:43:14;;;;;;;5.50;2.50;;;;;;;21.61;44.07;101197.63;5047741;28;20028;-78
2022/09/03 09:45:45;;;;;;;10.75;3.20;;;;;;;21.72;44.76;101198.13;5058056;28;20035;-74
2022/09/03 09:48:33;;;;;;;4.63;2.30;;;;;;;21.85;44.12;101200.25;5057236;28;20040;-74
2022/09/03 09:51:13;;;;;;;5.45;2.75;;;;;;;22.20;42.12;101197.63;5055446;28;20020;-80
2022/09/03 09:53:40;;;;;;;4.65;2.60;;;;;;;22.19;42.49;101196.84;5039657;28;20037;-74
2022/09/03 09:56:06;;;;;;;3.65;2.25;;;;;;;22.86;42.13;101189.59;5051777;28;20042;-76
2022/09/03 09:58:33;;;;;;;4.57;2.60;;;;;;;22.78;41.72;101197.56;5038519;28;20036;-80
2022/09/03 10:01:12;;;;;;;7.97;2.72;;;;;;;22.77;41.96;101198.00;5055222;28;20160;-74
2022/09/03 10:03:54;;;;;;;37.85;5.70;;;;;;;22.92;41.71;101191.41;5040722;28;20400;-78
2022/09/03 10:09:11;;;;;;;10.30;2.47;;;;;;;23.32;40.21;101202.38;5057051;28;20679;-76
2022/09/03 10:11:41;;;;;;;4.55;2.33;;;;;;;23.19;40.77;101210.16;5062297;28;21159;-77
2022/09/03 10:14:15;;;;;;;3.97;2.88;;;;;;;23.19;40.05;101204.44;5044868;28;20024;-78
2022/09/03 10:16:47;;;;;;;3.47;2.30;;;;;;;23.27;40.54;101205.00;5067558;28;20102;-78
2022/09/03 10:19:29;;;;;;;4.38;2.50;;;;;;;23.36;39.83;101195.72;5058315;28;20424;-74
2022/09/03 10:22:11;;;;;;;5.72;2.30;;;;;;;23.46;38.48;101198.22;5056701;28;20024;-74
2022/09/03 10:24:40;;;;;;;5.85;2.35;;;;;;;23.74;39.60;101192.78;5056006;28;22267;-74
2022/09/03 10:27:10;;;;;;;7.43;2.53;;;;;;;23.78;39.47;101196.34;5039666;28;20072;-73
2022/09/03 10:29:38;;;;;;;4.82;2.58;;;;;;;24.02;39.40;101185.25;5059304;28;20082;-75
2022/09/03 10:32:06;;;;;;;4.82;2.65;;;;;;;24.28;37.84;101182.28;5048514;28;20111;-74
2022/09/03 10:34:45;;;;;;;5.32;2.67;;;;;;;24.32;38.16;101185.78;5062251;28;20044;-78
2022/09/03 10:37:22;;;;;;;5.13;2.30;;;;;;;24.15;37.83;101183.13;5060738;28;20039;-79
2022/09/03 10:39:57;;;;;;;6.75;2.45;;;;;;;24.52;37.55;101188.34;5061404;28;21192;-76
2022/09/03 10:42:34;;;;;;;10.27;2.90;;;;;;;24.39;37.04;101188.38;5057010;28;20024;-77
2022/09/03 10:45:18;;;;;;;4.78;2.80;;;;;;;24.32;37.01;101185.78;5040516;28;20029;-76
2022/09/03 10:47:55;;;;;;;8.85;3.20;;;;;;;24.58;37.98;101182.78;5055021;28;20033;-76
2022/09/03 10:50:50;;;;;;;6.57;2.65;;;;;;;24.95;37.62;101184.56;5058249;28;20118;-78
2022/09/03 10:53:38;;;;;;;3.25;2.20;;;;;;;24.87;37.06;101174.66;5055476;28;20599;-76
2022/09/03 10:56:13;;;;;;;3.85;2.20;;;;;;;24.94;37.70;101170.69;5054009;28;20041;-79
2022/09/03 10:59:18;;;;;;;4.28;2.85;;;;;;;24.87;35.84;101166.06;5042078;28;20159;-76
2022/09/03 11:02:08;;;;;;;3.40;2.50;;;;;;;25.07;35.06;101170.63;5055567;28;20502;-76
2022/09/03 11:05:06;;;;;;;7.10;2.65;;;;;;;25.19;34.35;101166.81;5057701;28;20071;-80
2022/09/03 11:07:38;;;;;;;3.47;2.80;;;;;;;25.44;33.69;101165.78;5044703;28;20024;-80
2022/09/03 11:10:30;;;;;;;3.47;2.30;;;;;;;25.17;35.97;101169.34;5039284;28;20024;-80
2022/09/03 11:13:05;;;;;;;4.35;2.42;;;;;;;25.59;33.25;101165.97;5033829;28;20775;-80
2022/09/03 11:15:36;;;;;;;8.43;2.33;;;;;;;25.46;33.11;101163.22;5057089;28;20023;-76
2022/09/03 11:18:03;;;;;;;8.87;2.57;;;;;;;25.52;32.77;101155.59;5058646;28;20024;-81
2022/09/03 11:20:31;;;;;;;6.20;2.92;;;;;;;25.73;32.55;101158.81;5062336;28;20075;-76
2022/09/03 11:23:01;;;;;;;4.45;2.70;;;;;;;25.87;33.22;101157.38;5054752;28;20119;-77
2022/09/03 11:25:33;;;;;;;3.60;2.33;;;;;;;25.38;34.53;101155.44;5058137;28;20032;-77
2022/09/03 11:28:02;;;;;;;10.98;2.85;;;;;;;26.15;33.16;101150.34;5053073;28;21134;-82
2022/09/03 11:30:46;;;;;;;5.53;2.65;;;;;;;26.25;34.20;101153.22;5055076;28;20032;-79
2022/09/03 11:33:13;;;;;;;5.20;3.17;;;;;;;25.33;34.60;101157.66;5052283;28;20029;-75
2022/09/03 11:35:41;;;;;;;5.32;2.88;;;;;;;24.97;36.07;101157.53;5037837;28;20492;-75
2022/09/03 11:38:12;;;;;;;3.67;2.72;;;;;;;25.38;34.97;101155.44;5036500;28;20127;-80
2022/09/03 11:40:52;;;;;;;3.22;2.38;;;;;;;25.96;32.61;101143.06;5054586;28;20017;-74
2022/09/03 11:43:23;;;;;;;5.72;2.83;;;;;;;25.82;33.95;101146.53;5052955;28;20067;-80
2022/09/03 11:46:01;;;;;;;4.90;2.33;;;;;;;25.76;34.85;101134.91;5048682;28;20036;-75
2022/09/03 11:48:44;;;;;;;6.28;2.70;;;;;;;25.79;33.74;101136.84;5051959;28;20387;-82
2022/09/03 11:51:29;;;;;;;6.28;2.45;;;;;;;25.86;33.18;101127.09;5053884;28;20037;-76
2022/09/03 11:53:57;;;;;;;8.32;3.25;;;;;;;25.75;34.81;101134.13;5054217;28;20123;-77